createdAt,value
2022-08-21T00:02:30.158Z,2.97
2022-08-21T00:04:57.714Z,3.15
2022-08-21T00:07:25.522Z,2.83
2022-08-21T00:09:53.525Z,2.80
2022-08-21T00:12:20.780Z,3.33
2022-08-21T00:14:47.507Z,2.83
2022-08-21T00:17:14.188Z,3.00
2022-08-21T00:19:40.870Z,3.30
2022-08-21T00:22:07.531Z,3.17
2022-08-21T00:24:34.368Z,2.50
2022-08-21T00:27:01.076Z,2.60
2022-08-21T00:29:27.731Z,3.05
2022-08-21T00:31:54.435Z,2.50
2022-08-21T00:34:21.287Z,2.83
2022-08-21T00:36:47.926Z,3.13
2022-08-21T00:39:14.571Z,2.90
2022-08-21T00:41:42.759Z,2.60
2022-08-21T00:44:12.913Z,3.00
2022-08-21T00:46:40.780Z,2.78
2022-08-21T00:49:08.544Z,2.65
2022-08-21T00:51:44.422Z,2.85
2022-08-21T00:54:18.790Z,3.15
2022-08-21T00:56:49.046Z,2.83
2022-08-21T00:59:18.018Z,2.70
2022-08-21T01:01:44.758Z,3.08
2022-08-21T01:04:12.499Z,3.20
2022-08-21T01:06:39.134Z,3.10
2022-08-21T01:09:05.825Z,2.95
2022-08-21T01:11:35.779Z,2.60
2022-08-21T01:14:05.873Z,2.53
2022-08-21T01:16:34.015Z,2.40
2022-08-21T01:19:00.648Z,2.30
2022-08-21T01:21:29.209Z,3.10
2022-08-21T01:23:57.721Z,2.72
2022-08-21T01:26:33.926Z,3.17
2022-08-21T01:29:20.914Z,1.98
2022-08-21T01:31:47.821Z,1.00
2022-08-21T01:34:16.637Z,1.45
2022-08-21T01:36:45.772Z,1.92
2022-08-21T01:39:12.555Z,1.80
2022-08-21T01:41:39.120Z,1.30
2022-08-21T01:44:05.910Z,1.30
2022-08-21T01:46:32.609Z,1.02
2022-08-21T01:48:59.292Z,1.17
2022-08-21T01:51:25.884Z,1.00
2022-08-21T01:53:52.656Z,1.13
2022-08-21T01:56:19.672Z,0.80
2022-08-21T01:58:48.189Z,0.93
2022-08-21T02:01:15.110Z,1.02
2022-08-21T02:03:42.453Z,1.20
2022-08-21T02:06:14.840Z,1.10
2022-08-21T02:08:41.779Z,0.95
2022-08-21T02:11:08.443Z,1.20
2022-08-21T02:13:37.238Z,1.00
2022-08-21T02:16:04.003Z,1.17
2022-08-21T02:18:30.838Z,1.20
2022-08-21T02:20:57.526Z,0.90
2022-08-21T02:23:27.200Z,1.08
2022-08-21T02:26:07.637Z,1.27
2022-08-21T02:28:34.864Z,1.15
2022-08-21T02:31:02.401Z,1.23
2022-08-21T02:33:29.763Z,1.50
2022-08-21T02:35:57.479Z,0.98
2022-08-21T02:38:29.158Z,1.23
2022-08-21T02:40:56.460Z,0.90
2022-08-21T02:43:25.037Z,1.25
2022-08-21T02:45:52.685Z,0.80
2022-08-21T02:48:22.661Z,1.15
2022-08-21T02:50:54.565Z,1.63
2022-08-21T02:53:21.372Z,1.02
2022-08-21T02:55:50.264Z,1.30
2022-08-21T02:58:20.960Z,0.75
2022-08-21T03:00:48.251Z,1.10
2022-08-21T03:03:15.712Z,1.23
2022-08-21T03:05:44.348Z,1.42
2022-08-21T03:08:13.261Z,1.05
2022-08-21T03:10:46.028Z,1.00
2022-08-21T03:13:13.380Z,1.33
2022-08-21T03:15:43.278Z,1.00
2022-08-21T03:18:11.053Z,1.52
2022-08-21T03:20:39.646Z,1.40
2022-08-21T03:23:12.451Z,1.38
2022-08-21T03:25:43.623Z,1.00
2022-08-21T03:28:15.176Z,1.48
2022-08-21T03:30:44.745Z,1.15
2022-08-21T03:33:12.296Z,1.23
2022-08-21T03:35:43.480Z,1.33
2022-08-21T03:38:10.499Z,1.05
2022-08-21T03:40:37.226Z,1.83
2022-08-21T03:43:03.880Z,0.95
2022-08-21T03:45:30.576Z,1.15
2022-08-21T03:48:02.672Z,1.23
2022-08-21T03:50:32.954Z,1.42
2022-08-21T03:53:02.120Z,1.02
2022-08-21T03:55:29.185Z,1.42
2022-08-21T03:57:56.854Z,0.80
2022-08-21T04:00:24.351Z,1.02
2022-08-21T04:02:51.441Z,0.90
2022-08-21T04:05:39.210Z,1.15
2022-08-21T04:08:07.355Z,1.00
2022-08-21T04:10:36.326Z,1.20
2022-08-21T04:13:04.705Z,1.10
2022-08-21T04:15:31.502Z,1.20
2022-08-21T04:17:58.090Z,1.38
2022-08-21T04:20:26.031Z,1.23
2022-08-21T04:22:53.220Z,1.50
2022-08-21T04:25:22.544Z,1.20
2022-08-21T04:27:49.726Z,1.30
2022-08-21T04:30:17.288Z,1.42
2022-08-21T04:32:45.976Z,1.00
2022-08-21T04:35:14.528Z,1.25
2022-08-21T04:37:42.109Z,1.20
2022-08-21T04:40:11.290Z,1.20
2022-08-21T04:42:47.498Z,1.08
2022-08-21T04:45:21.505Z,1.10
2022-08-21T04:47:52.834Z,1.20
2022-08-21T04:50:25.614Z,1.25
2022-08-21T04:52:52.475Z,1.10
2022-08-21T04:55:21.173Z,1.13
2022-08-21T04:57:48.987Z,1.35
2022-08-21T05:00:19.732Z,1.30
2022-08-21T05:02:48.792Z,1.00
2022-08-21T05:05:17.117Z,1.50
2022-08-21T05:07:45.587Z,1.15
2022-08-21T05:10:15.040Z,1.17
2022-08-21T05:12:50.807Z,1.08
2022-08-21T05:15:18.209Z,1.20
2022-08-21T05:17:53.746Z,1.20
2022-08-21T05:20:28.072Z,1.45
2022-08-21T05:22:54.744Z,1.67
2022-08-21T05:25:22.251Z,1.10
2022-08-21T05:27:51.948Z,1.10
2022-08-21T05:30:20.793Z,1.60
2022-08-21T05:32:48.773Z,1.33
2022-08-21T05:35:16.120Z,1.17
2022-08-21T05:37:42.722Z,0.98
2022-08-21T05:40:21.324Z,0.98
2022-08-21T05:42:54.548Z,1.20
2022-08-21T05:45:42.980Z,1.20
2022-08-21T05:48:31.240Z,1.27
2022-08-21T05:50:58.562Z,1.38
2022-08-21T05:53:25.605Z,1.48
2022-08-21T05:55:52.911Z,1.27
2022-08-21T05:58:21.930Z,1.25
2022-08-21T06:00:50.103Z,1.45
2022-08-21T06:03:29.186Z,1.58
2022-08-21T06:05:56.906Z,1.35
2022-08-21T06:08:24.303Z,1.52
2022-08-21T06:10:53.804Z,1.40
2022-08-21T06:13:21.960Z,1.60
2022-08-21T06:15:49.380Z,1.38
2022-08-21T06:18:16.350Z,1.10
2022-08-21T06:20:43.233Z,1.85
2022-08-21T06:23:10.327Z,1.27
2022-08-21T06:25:37.133Z,1.10
2022-08-21T06:28:03.819Z,1.38
2022-08-21T06:30:30.522Z,1.27
2022-08-21T06:32:57.199Z,1.38
2022-08-21T06:35:25.490Z,2.10
2022-08-21T06:37:52.138Z,1.35
2022-08-21T06:40:18.882Z,1.30
2022-08-21T06:42:49.837Z,1.30
2022-08-21T06:45:16.773Z,1.70
2022-08-21T06:47:43.294Z,1.58
2022-08-21T06:50:10.123Z,1.70
2022-08-21T06:52:38.353Z,1.52
2022-08-21T06:55:10.638Z,1.30
2022-08-21T06:57:37.261Z,1.33
2022-08-21T07:00:08.084Z,1.27
2022-08-21T07:02:34.802Z,1.40
2022-08-21T07:05:01.917Z,2.08
2022-08-21T07:07:47.477Z,4.15
2022-08-21T07:10:21.759Z,1.58
2022-08-21T07:12:50.760Z,1.25
2022-08-21T07:15:18.079Z,1.73
2022-08-21T07:17:47.229Z,4.47
2022-08-21T07:20:16.319Z,3.67
2022-08-21T07:22:43.709Z,3.25
2022-08-21T07:25:10.549Z,3.10
2022-08-21T07:27:37.184Z,3.35
2022-08-21T07:30:05.554Z,3.38
2022-08-21T07:32:32.438Z,3.33
2022-08-21T07:34:58.996Z,3.03
2022-08-21T07:37:26.077Z,3.38
2022-08-21T07:39:52.679Z,3.25
2022-08-21T07:42:19.364Z,2.78
2022-08-21T07:44:49.544Z,2.78
2022-08-21T07:47:41.334Z,2.95
2022-08-21T07:50:16.257Z,3.05
2022-08-21T07:52:44.832Z,3.50
2022-08-21T07:55:15.492Z,2.65
2022-08-21T07:57:42.900Z,3.05
2022-08-21T08:00:14.720Z,2.60
2022-08-21T08:02:46.184Z,3.00
2022-08-21T08:05:13.255Z,2.67
2022-08-21T08:07:40.176Z,3.00
2022-08-21T08:10:08.075Z,3.53
2022-08-21T08:12:36.283Z,2.75
2022-08-21T08:15:03.979Z,2.80
2022-08-21T08:17:30.564Z,3.53
2022-08-21T08:19:57.115Z,2.90
2022-08-21T08:22:24.967Z,2.90
2022-08-21T08:24:53.125Z,3.30
2022-08-21T08:27:20.900Z,3.65
2022-08-21T08:29:48.469Z,3.47
2022-08-21T08:32:16.094Z,3.00
2022-08-21T08:34:42.634Z,3.40
2022-08-21T08:37:10.974Z,3.25
2022-08-21T08:39:37.915Z,3.13
2022-08-21T08:42:32.262Z,3.20
2022-08-21T08:45:02.849Z,3.17
2022-08-21T08:47:32.158Z,3.20
2022-08-21T08:50:28.381Z,3.28
2022-08-21T08:53:01.144Z,3.05
2022-08-21T08:55:32.485Z,3.47
2022-08-21T08:57:59.310Z,3.13
2022-08-21T09:00:26.452Z,3.58
2022-08-21T09:02:56.951Z,3.38
2022-08-21T09:05:30.124Z,2.88
2022-08-21T09:08:19.686Z,3.10
2022-08-21T09:10:52.015Z,3.10
2022-08-21T09:13:27.223Z,2.63
2022-08-21T09:16:24.303Z,2.90
2022-08-21T09:19:11.236Z,2.90
2022-08-21T09:21:37.722Z,2.50
2022-08-21T09:24:23.732Z,2.50
2022-08-21T09:27:02.382Z,2.50
2022-08-21T09:29:33.703Z,2.80
2022-08-21T09:32:00.586Z,2.72
2022-08-21T09:34:29.945Z,2.80
2022-08-21T09:36:57.359Z,3.20
2022-08-21T09:39:40.146Z,2.92
2022-08-21T09:42:10.017Z,2.53
2022-08-21T09:44:42.572Z,2.80
2022-08-21T09:47:10.396Z,2.63
2022-08-21T09:49:39.911Z,3.08
2022-08-21T09:52:18.450Z,2.70
2022-08-21T09:54:52.010Z,2.50
2022-08-21T09:57:46.415Z,2.78
2022-08-21T10:00:27.382Z,2.88
2022-08-21T10:02:54.102Z,2.35
2022-08-21T10:05:28.070Z,2.20
2022-08-21T10:07:54.699Z,2.60
2022-08-21T10:10:29.730Z,2.85
2022-08-21T10:13:35.055Z,2.60
2022-08-21T10:16:22.869Z,2.65
2022-08-21T10:19:05.743Z,2.40
2022-08-21T10:21:44.339Z,2.25
2022-08-21T10:24:37.612Z,2.55
2022-08-21T10:27:26.183Z,2.60
2022-08-21T10:30:02.623Z,2.72
2022-08-21T10:32:29.108Z,2.78
2022-08-21T10:35:03.331Z,2.60
2022-08-21T10:37:54.073Z,2.72
2022-08-21T10:40:20.571Z,2.63
2022-08-21T10:43:05.333Z,2.38
2022-08-21T10:45:50.701Z,2.22
2022-08-21T10:48:27.358Z,2.10
2022-08-21T10:51:29.105Z,3.00
2022-08-21T10:54:13.754Z,2.83
2022-08-21T10:56:43.982Z,2.90
2022-08-21T10:59:19.765Z,2.90
2022-08-21T11:02:01.873Z,2.70
2022-08-21T11:04:49.491Z,3.03
2022-08-21T11:07:27.191Z,2.42
2022-08-21T11:10:05.107Z,2.80
2022-08-21T11:13:09.768Z,2.95
2022-08-21T11:15:46.790Z,2.30
2022-08-21T11:18:37.885Z,3.25
2022-08-21T11:21:32.134Z,3.30
2022-08-21T11:24:11.654Z,2.65
2022-08-21T11:26:52.052Z,3.60
2022-08-21T11:29:32.341Z,2.97
2022-08-21T11:32:14.137Z,3.00
2022-08-21T11:35:02.767Z,2.60
2022-08-21T11:38:06.534Z,3.22
2022-08-21T11:41:00.479Z,5.63
2022-08-21T11:43:36.841Z,3.45
2022-08-21T11:46:26.704Z,2.40
2022-08-21T11:49:11.724Z,2.70
2022-08-21T11:51:46.766Z,2.88
2022-08-21T11:54:41.002Z,2.45
2022-08-21T11:57:46.187Z,2.50
2022-08-21T12:00:21.727Z,2.75
2022-08-21T12:03:29.028Z,2.80
2022-08-21T12:06:10.422Z,2.90
2022-08-21T12:08:39.932Z,2.80
2022-08-21T12:11:10.726Z,2.70
2022-08-21T12:13:42.589Z,2.83
2022-08-21T12:16:16.688Z,2.97
2022-08-21T12:18:44.124Z,2.60
2022-08-21T12:21:25.371Z,2.65
2022-08-21T12:24:12.986Z,2.67
2022-08-21T12:26:52.549Z,2.58
2022-08-21T12:29:26.432Z,2.70
2022-08-21T12:31:57.692Z,2.38
2022-08-21T12:34:40.490Z,2.60
2022-08-21T12:37:16.327Z,2.92
2022-08-21T12:39:47.597Z,2.88
2022-08-21T12:42:52.916Z,2.92
2022-08-21T12:45:42.632Z,2.78
2022-08-21T12:48:27.781Z,2.80
2022-08-21T12:51:06.311Z,2.50
2022-08-21T12:53:36.581Z,2.92
2022-08-21T12:56:05.436Z,2.78
2022-08-21T12:58:32.694Z,2.58
2022-08-21T13:01:04.398Z,2.38
2022-08-21T13:03:32.659Z,3.10
2022-08-21T13:06:00.154Z,2.90
2022-08-21T13:08:28.224Z,4.03
2022-08-21T13:11:13.422Z,2.67
2022-08-21T13:13:46.856Z,2.70
2022-08-21T13:16:25.865Z,2.65
2022-08-21T13:19:00.043Z,3.00
2022-08-21T13:21:33.410Z,2.90
2022-08-21T13:24:43.992Z,2.80
2022-08-21T13:27:21.872Z,3.97
2022-08-21T13:29:53.094Z,2.83
2022-08-21T13:32:26.566Z,3.00
2022-08-21T13:34:54.252Z,3.42
2022-08-21T13:37:26.299Z,3.42
2022-08-21T13:39:56.116Z,2.80
2022-08-21T13:42:27.892Z,3.40
2022-08-21T13:44:55.566Z,3.00
2022-08-21T13:47:22.361Z,2.80
2022-08-21T13:49:52.275Z,2.30
2022-08-21T13:52:26.815Z,3.25
2022-08-21T13:55:08.643Z,2.80
2022-08-21T13:57:37.681Z,2.70
2022-08-21T14:00:16.335Z,2.83
2022-08-21T14:02:46.103Z,2.90
2022-08-21T14:05:22.566Z,2.50
2022-08-21T14:07:53.746Z,2.60
2022-08-21T14:10:24.316Z,2.75
2022-08-21T14:12:55.811Z,2.80
2022-08-21T14:15:33.137Z,2.40
2022-08-21T14:18:17.797Z,2.47
2022-08-21T14:20:46.042Z,2.60
2022-08-21T14:23:24.412Z,2.90
2022-08-21T14:25:51.440Z,2.72
2022-08-21T14:28:34.355Z,2.53
2022-08-21T14:31:22.287Z,2.80
2022-08-21T14:33:49.795Z,2.70
2022-08-21T14:36:16.653Z,2.70
2022-08-21T14:38:43.475Z,2.50
2022-08-21T14:41:23.239Z,2.70
2022-08-21T14:44:05.749Z,2.85
2022-08-21T14:46:36.498Z,2.90
2022-08-21T14:49:18.300Z,4.15
2022-08-21T14:51:54.048Z,2.70
2022-08-21T14:54:21.137Z,2.75
2022-08-21T14:56:58.018Z,2.50
2022-08-21T14:59:24.750Z,2.83
2022-08-21T15:01:51.508Z,2.70
2022-08-21T15:04:18.099Z,2.63
2022-08-21T15:06:44.715Z,2.60
2022-08-21T15:09:11.263Z,3.17
2022-08-21T15:11:41.750Z,2.55
2022-08-21T15:14:16.360Z,3.00
2022-08-21T15:16:42.942Z,2.65
2022-08-21T15:19:09.524Z,2.83
2022-08-21T15:21:36.117Z,2.65
2022-08-21T15:24:11.948Z,2.65
2022-08-21T15:26:39.052Z,2.00
2022-08-21T15:29:07.717Z,2.30
2022-08-21T15:31:37.132Z,2.60
2022-08-21T15:34:04.193Z,2.60
2022-08-21T15:36:30.841Z,2.53
2022-08-21T15:39:00.290Z,2.45
2022-08-21T15:41:26.929Z,2.45
2022-08-21T15:43:54.314Z,2.33
2022-08-21T15:46:22.287Z,2.78
2022-08-21T15:48:49.255Z,2.63
2022-08-21T15:51:17.765Z,2.20
2022-08-21T15:53:45.158Z,2.55
2022-08-21T15:56:35.727Z,2.38
2022-08-21T15:59:06.321Z,2.53
2022-08-21T16:01:44.844Z,2.35
2022-08-21T16:04:16.331Z,2.20
2022-08-21T16:06:54.297Z,2.38
2022-08-21T16:09:23.951Z,2.53
2022-08-21T16:11:51.520Z,2.38
2022-08-21T16:14:18.413Z,2.30
2022-08-21T16:16:45.413Z,4.22
2022-08-21T16:19:13.575Z,4.38
2022-08-21T16:21:40.223Z,2.63
2022-08-21T16:24:06.882Z,2.25
2022-08-21T16:26:34.015Z,2.53
2022-08-21T16:29:01.727Z,2.20
2022-08-21T16:31:28.477Z,2.40
2022-08-21T16:33:57.988Z,2.50
2022-08-21T16:36:28.616Z,2.78
2022-08-21T16:38:57.493Z,2.40
2022-08-21T16:41:27.412Z,2.55
2022-08-21T16:43:54.050Z,2.78
2022-08-21T16:46:23.167Z,2.50
2022-08-21T16:48:50.276Z,2.75
2022-08-21T16:51:17.826Z,2.60
2022-08-21T16:53:44.383Z,2.72
2022-08-21T16:56:13.559Z,2.67
2022-08-21T16:58:44.088Z,2.63
2022-08-21T17:01:15.186Z,3.15
2022-08-21T17:03:45.844Z,2.55
2022-08-21T17:06:14.054Z,2.40
2022-08-21T17:08:40.814Z,2.75
2022-08-21T17:11:12.668Z,3.05
2022-08-21T17:14:01.982Z,4.00
2022-08-21T17:16:32.210Z,2.90
2022-08-21T17:18:58.743Z,2.78
2022-08-21T17:21:25.297Z,2.90
2022-08-21T17:23:51.848Z,2.95
2022-08-21T17:26:19.552Z,3.08
2022-08-21T17:28:47.105Z,2.60
2022-08-21T17:31:14.391Z,2.60
2022-08-21T17:33:50.539Z,2.90
2022-08-21T17:36:23.136Z,2.80
2022-08-21T17:38:50.193Z,2.97
2022-08-21T17:41:17.674Z,2.55
2022-08-21T17:43:44.401Z,2.70
2022-08-21T17:46:17.267Z,2.35
2022-08-21T17:48:47.247Z,3.85
2022-08-21T17:51:15.066Z,3.03
2022-08-21T17:53:42.637Z,2.80
2022-08-21T17:56:09.438Z,2.78
2022-08-21T17:58:37.079Z,2.80
2022-08-21T18:01:05.876Z,3.03
2022-08-21T18:03:38.213Z,2.63
2022-08-21T18:06:06.499Z,2.30
2022-08-21T18:08:34.154Z,2.50
2022-08-21T18:11:01.639Z,2.75
2022-08-21T18:13:32.528Z,2.20
2022-08-21T18:16:03.111Z,2.30
2022-08-21T18:18:36.949Z,2.90
2022-08-21T18:21:03.676Z,2.92
2022-08-21T18:23:43.162Z,3.13
2022-08-21T18:26:14.390Z,3.50
2022-08-21T18:28:41.449Z,2.60
2022-08-21T18:31:10.842Z,3.08
2022-08-21T18:33:39.585Z,2.95
2022-08-21T18:36:11.191Z,2.95
2022-08-21T18:38:37.899Z,2.65
2022-08-21T18:41:09.513Z,2.78
2022-08-21T18:43:37.079Z,2.80
2022-08-21T18:46:05.023Z,2.50
2022-08-21T18:48:32.303Z,2.50
2022-08-21T18:51:01.705Z,2.80
2022-08-21T18:53:29.173Z,2.78
2022-08-21T18:55:57.753Z,3.25
2022-08-21T18:58:32.042Z,4.13
2022-08-21T19:01:02.180Z,2.58
2022-08-21T19:03:31.617Z,2.70
2022-08-21T19:05:58.410Z,2.80
2022-08-21T19:08:32.340Z,4.05
2022-08-21T19:11:05.247Z,3.28
2022-08-21T19:13:33.968Z,3.00
2022-08-21T19:16:03.702Z,2.85
2022-08-21T19:18:38.155Z,2.85
2022-08-21T19:21:06.352Z,3.17
2022-08-21T19:23:35.587Z,2.90
2022-08-21T19:26:07.498Z,2.70
2022-08-21T19:28:41.723Z,2.85
2022-08-21T19:31:16.233Z,2.80
2022-08-21T19:33:46.781Z,2.60
2022-08-21T19:36:18.012Z,2.80
2022-08-21T19:38:46.142Z,2.80
2022-08-21T19:41:15.575Z,2.92
2022-08-21T19:43:47.804Z,2.80
2022-08-21T19:46:23.619Z,2.42
2022-08-21T19:48:52.755Z,2.85
2022-08-21T19:51:19.574Z,2.70
2022-08-21T19:53:46.332Z,2.53
2022-08-21T19:56:18.050Z,2.30
2022-08-21T20:01:35.886Z,2.33
2022-08-21T20:04:10.675Z,2.30
2022-08-21T20:06:44.970Z,2.40
2022-08-21T20:09:12.112Z,2.88
2022-08-21T20:11:46.618Z,2.70
2022-08-21T20:14:16.623Z,2.88
2022-08-21T20:16:44.087Z,2.67
2022-08-21T20:19:11.426Z,2.88
2022-08-21T20:21:43.599Z,2.60
2022-08-21T20:24:15.431Z,2.83
2022-08-21T20:26:48.779Z,2.97
2022-08-21T20:29:24.515Z,2.67
2022-08-21T20:31:59.284Z,2.75
2022-08-21T20:34:26.175Z,2.72
2022-08-21T20:36:53.479Z,2.90
2022-08-21T20:39:20.112Z,2.85
2022-08-21T20:41:52.223Z,2.90
2022-08-21T20:44:18.959Z,2.88
2022-08-21T20:46:45.779Z,3.03
2022-08-21T20:49:21.252Z,2.65
2022-08-21T20:51:52.094Z,2.47
2022-08-21T20:54:37.555Z,2.60
2022-08-21T20:57:14.033Z,2.88
2022-08-21T20:59:56.398Z,2.80
2022-08-21T21:02:42.748Z,2.78
2022-08-21T21:05:16.374Z,3.33
2022-08-21T21:08:07.088Z,3.20
2022-08-21T21:13:39.538Z,2.60
2022-08-21T21:16:14.526Z,2.80
2022-08-21T21:18:50.402Z,2.88
2022-08-21T21:21:33.992Z,3.00
2022-08-21T21:24:11.975Z,2.70
2022-08-21T21:27:00.275Z,2.72
2022-08-21T21:29:31.927Z,3.50
2022-08-21T21:31:59.089Z,2.47
2022-08-21T21:34:28.069Z,2.67
2022-08-21T21:37:05.765Z,2.90
2022-08-21T21:39:41.513Z,2.88
2022-08-21T21:42:15.978Z,2.53
2022-08-21T21:44:45.478Z,2.67
2022-08-21T21:47:21.407Z,2.50
2022-08-21T21:50:18.996Z,2.53
2022-08-21T21:52:56.143Z,2.90
2022-08-21T21:55:50.363Z,2.80
2022-08-21T21:58:41.962Z,2.95
2022-08-21T22:01:21.873Z,2.90
2022-08-21T22:07:14.804Z,2.42
2022-08-21T22:09:59.493Z,2.78
2022-08-21T22:13:10.555Z,2.78
2022-08-21T22:15:38.393Z,3.00
2022-08-21T22:18:11.966Z,2.70
2022-08-21T22:20:46.224Z,3.00
2022-08-21T22:23:18.940Z,2.80
2022-08-21T22:25:49.041Z,2.95
2022-08-21T22:31:18.364Z,2.85
2022-08-21T22:34:01.745Z,3.20
2022-08-21T22:36:38.149Z,3.08
2022-08-21T22:39:11.950Z,2.75
2022-08-21T22:41:43.726Z,2.95
2022-08-21T22:44:22.545Z,2.97
2022-08-21T22:46:51.182Z,3.05
2022-08-21T22:49:34.334Z,3.25
2022-08-21T22:52:18.309Z,2.80
2022-08-21T22:54:45.368Z,2.92
2022-08-21T22:57:32.330Z,2.92
2022-08-21T23:00:11.877Z,2.55
2022-08-21T23:02:52.246Z,2.80
2022-08-21T23:05:39.168Z,2.75
2022-08-21T23:08:38.675Z,2.90
2022-08-21T23:11:39.936Z,3.13
2022-08-21T23:14:11.955Z,2.70
2022-08-21T23:17:00.991Z,2.40
2022-08-21T23:19:57.571Z,2.20
2022-08-21T23:22:40.690Z,2.63
2022-08-21T23:25:27.582Z,2.45
2022-08-21T23:28:16.248Z,2.78
2022-08-21T23:31:01.021Z,2.50
2022-08-21T23:33:55.736Z,2.65
2022-08-21T23:37:09.358Z,3.00
2022-08-21T23:40:06.982Z,2.63
2022-08-21T23:43:21.242Z,3.25
2022-08-21T23:46:16.052Z,3.10
2022-08-21T23:49:20.434Z,2.95
2022-08-21T23:51:52.882Z,2.88
2022-08-21T23:54:55.951Z,2.90
2022-08-21T23:57:44.583Z,2.75
